sensor_id;sensor_type;location;lat;lon;timestamp;P1;durP1;ratioP1;P2;durP2;ratioP2
83121;SDS011;73002;47.238;9.006;2024-03-25T00:01:09;4.65;;;2.33;;
83121;SDS011;73002;47.238;9.006;2024-03-25T00:03:34;3.38;;;2.20;;
83121;SDS011;73002;47.238;9.006;2024-03-25T00:06:00;3.13;;;1.75;;
83121;SDS011;73002;47.238;9.006;2024-03-25T00:08:25;3.10;;;2.20;;
83121;SDS011;73002;47.238;9.006;2024-03-25T00:10:51;4.85;;;2.20;;
83121;SDS011;73002;47.238;9.006;2024-03-25T00:13:16;4.78;;;2.45;;
83121;SDS011;73002;47.238;9.006;2024-03-25T00:15:42;5.53;;;2.55;;
83121;SDS011;73002;47.238;9.006;2024-03-25T00:18:08;4.88;;;2.08;;
83121;SDS011;73002;47.238;9.006;2024-03-25T00:20:36;6.22;;;2.65;;
83121;SDS011;73002;47.238;9.006;2024-03-25T00:23:01;4.63;;;2.33;;
83121;SDS011;73002;47.238;9.006;2024-03-25T00:25:29;3.40;;;2.40;;
83121;SDS011;73002;47.238;9.006;2024-03-25T00:27:55;4.88;;;2.40;;
83121;SDS011;73002;47.238;9.006;2024-03-25T00:30:21;4.25;;;2.40;;
83121;SDS011;73002;47.238;9.006;2024-03-25T00:32:47;3.72;;;2.53;;
83121;SDS011;73002;47.238;9.006;2024-03-25T00:35:12;5.22;;;2.60;;
83121;SDS011;73002;47.238;9.006;2024-03-25T00:37:38;5.75;;;2.40;;
83121;SDS011;73002;47.238;9.006;2024-03-25T00:40:03;4.18;;;2.50;;
83121;SDS011;73002;47.238;9.006;2024-03-25T00:42:29;6.72;;;2.40;;
83121;SDS011;73002;47.238;9.006;2024-03-25T00:44:55;4.85;;;2.50;;
83121;SDS011;73002;47.238;9.006;2024-03-25T00:47:20;3.55;;;2.30;;
83121;SDS011;73002;47.238;9.006;2024-03-25T00:49:48;5.05;;;2.45;;
83121;SDS011;73002;47.238;9.006;2024-03-25T00:52:14;5.85;;;2.55;;
83121;SDS011;73002;47.238;9.006;2024-03-25T00:54:39;5.85;;;2.50;;
83121;SDS011;73002;47.238;9.006;2024-03-25T00:57:06;4.72;;;2.60;;
83121;SDS011;73002;47.238;9.006;2024-03-25T00:59:33;4.75;;;2.20;;
83121;SDS011;73002;47.238;9.006;2024-03-25T01:01:59;6.78;;;2.70;;
83121;SDS011;73002;47.238;9.006;2024-03-25T01:04:24;6.60;;;2.50;;
83121;SDS011;73002;47.238;9.006;2024-03-25T01:06:49;4.43;;;2.72;;
83121;SDS011;73002;47.238;9.006;2024-03-25T01:09:15;5.65;;;2.88;;
83121;SDS011;73002;47.238;9.006;2024-03-25T01:11:44;4.75;;;2.65;;
83121;SDS011;73002;47.238;9.006;2024-03-25T01:14:13;8.45;;;3.20;;
83121;SDS011;73002;47.238;9.006;2024-03-25T01:16:38;7.00;;;3.00;;
83121;SDS011;73002;47.238;9.006;2024-03-25T01:19:04;6.63;;;2.78;;
83121;SDS011;73002;47.238;9.006;2024-03-25T01:21:33;3.55;;;2.53;;
83121;SDS011;73002;47.238;9.006;2024-03-25T01:23:59;4.68;;;2.72;;
83121;SDS011;73002;47.238;9.006;2024-03-25T01:26:25;8.00;;;3.15;;
83121;SDS011;73002;47.238;9.006;2024-03-25T01:28:51;5.57;;;3.10;;
83121;SDS011;73002;47.238;9.006;2024-03-25T01:31:16;5.65;;;3.00;;
83121;SDS011;73002;47.238;9.006;2024-03-25T01:33:41;5.20;;;3.25;;
83121;SDS011;73002;47.238;9.006;2024-03-25T01:36:07;4.88;;;2.85;;
83121;SDS011;73002;47.238;9.006;2024-03-25T01:38:32;4.03;;;2.97;;
83121;SDS011;73002;47.238;9.006;2024-03-25T01:41:11;4.32;;;2.90;;
83121;SDS011;73002;47.238;9.006;2024-03-25T01:43:37;6.07;;;3.10;;
83121;SDS011;73002;47.238;9.006;2024-03-25T01:46:04;4.47;;;2.80;;
83121;SDS011;73002;47.238;9.006;2024-03-25T01:48:33;5.43;;;2.80;;
83121;SDS011;73002;47.238;9.006;2024-03-25T01:50:59;5.13;;;2.95;;
83121;SDS011;73002;47.238;9.006;2024-03-25T01:53:26;3.63;;;2.70;;
83121;SDS011;73002;47.238;9.006;2024-03-25T01:55:57;5.03;;;2.90;;
83121;SDS011;73002;47.238;9.006;2024-03-25T01:58:24;3.95;;;2.90;;
83121;SDS011;73002;47.238;9.006;2024-03-25T02:00:54;4.47;;;2.90;;
83121;SDS011;73002;47.238;9.006;2024-03-25T02:03:20;5.05;;;2.80;;
83121;SDS011;73002;47.238;9.006;2024-03-25T02:05:55;4.00;;;3.05;;
83121;SDS011;73002;47.238;9.006;2024-03-25T02:08:22;4.18;;;2.60;;
83121;SDS011;73002;47.238;9.006;2024-03-25T02:10:51;4.95;;;2.58;;
83121;SDS011;73002;47.238;9.006;2024-03-25T02:13:19;4.22;;;2.50;;
83121;SDS011;73002;47.238;9.006;2024-03-25T02:15:45;4.00;;;2.70;;
83121;SDS011;73002;47.238;9.006;2024-03-25T02:18:10;3.22;;;2.30;;
83121;SDS011;73002;47.238;9.006;2024-03-25T02:20:36;3.30;;;2.20;;
83121;SDS011;73002;47.238;9.006;2024-03-25T02:23:01;4.15;;;2.50;;
83121;SDS011;73002;47.238;9.006;2024-03-25T02:25:27;3.78;;;2.38;;
83121;SDS011;73002;47.238;9.006;2024-03-25T02:27:57;3.08;;;2.03;;
83121;SDS011;73002;47.238;9.006;2024-03-25T02:30:23;2.78;;;2.10;;
83121;SDS011;73002;47.238;9.006;2024-03-25T02:32:49;2.25;;;1.80;;
83121;SDS011;73002;47.238;9.006;2024-03-25T02:35:15;2.08;;;1.70;;
83121;SDS011;73002;47.238;9.006;2024-03-25T02:37:44;2.45;;;2.10;;
83121;SDS011;73002;47.238;9.006;2024-03-25T02:40:10;2.85;;;1.92;;
83121;SDS011;73002;47.238;9.006;2024-03-25T02:42:36;2.58;;;2.13;;
83121;SDS011;73002;47.238;9.006;2024-03-25T02:45:04;2.50;;;1.98;;
83121;SDS011;73002;47.238;9.006;2024-03-25T02:47:33;3.67;;;1.98;;
83121;SDS011;73002;47.238;9.006;2024-03-25T02:49:59;4.72;;;2.20;;
83121;SDS011;73002;47.238;9.006;2024-03-25T02:52:25;2.38;;;2.17;;
83121;SDS011;73002;47.238;9.006;2024-03-25T02:54:51;4.35;;;2.70;;
83121;SDS011;73002;47.238;9.006;2024-03-25T02:57:22;5.07;;;3.30;;
83121;SDS011;73002;47.238;9.006;2024-03-25T02:59:48;4.53;;;3.00;;
83121;SDS011;73002;47.238;9.006;2024-03-25T03:02:13;4.97;;;3.15;;
83121;SDS011;73002;47.238;9.006;2024-03-25T03:04:38;6.03;;;2.97;;
83121;SDS011;73002;47.238;9.006;2024-03-25T03:07:04;3.35;;;2.78;;
83121;SDS011;73002;47.238;9.006;2024-03-25T03:09:30;4.57;;;2.88;;
83121;SDS011;73002;47.238;9.006;2024-03-25T03:11:55;5.00;;;2.60;;
83121;SDS011;73002;47.238;9.006;2024-03-25T03:14:21;4.80;;;3.13;;
83121;SDS011;73002;47.238;9.006;2024-03-25T03:16:46;5.80;;;3.28;;
83121;SDS011;73002;47.238;9.006;2024-03-25T03:19:12;5.00;;;3.30;;
83121;SDS011;73002;47.238;9.006;2024-03-25T03:21:37;5.35;;;3.03;;
83121;SDS011;73002;47.238;9.006;2024-03-25T03:24:06;3.75;;;2.80;;
83121;SDS011;73002;47.238;9.006;2024-03-25T03:26:31;5.53;;;2.63;;
83121;SDS011;73002;47.238;9.006;2024-03-25T03:28:57;7.22;;;3.00;;
83121;SDS011;73002;47.238;9.006;2024-03-25T03:31:22;3.70;;;2.80;;
83121;SDS011;73002;47.238;9.006;2024-03-25T03:33:48;4.15;;;2.72;;
83121;SDS011;73002;47.238;9.006;2024-03-25T03:36:18;5.03;;;2.85;;
83121;SDS011;73002;47.238;9.006;2024-03-25T03:38:44;5.65;;;2.92;;
83121;SDS011;73002;47.238;9.006;2024-03-25T03:41:10;5.45;;;3.00;;
83121;SDS011;73002;47.238;9.006;2024-03-25T03:43:36;6.25;;;3.20;;
83121;SDS011;73002;47.238;9.006;2024-03-25T03:46:01;5.90;;;3.00;;
83121;SDS011;73002;47.238;9.006;2024-03-25T03:48:27;4.90;;;2.90;;
83121;SDS011;73002;47.238;9.006;2024-03-25T03:50:53;4.28;;;2.78;;
83121;SDS011;73002;47.238;9.006;2024-03-25T03:53:19;3.97;;;2.35;;
83121;SDS011;73002;47.238;9.006;2024-03-25T03:55:57;3.88;;;2.50;;
83121;SDS011;73002;47.238;9.006;2024-03-25T03:58:24;3.33;;;2.60;;
83121;SDS011;73002;47.238;9.006;2024-03-25T04:00:50;4.40;;;2.50;;
83121;SDS011;73002;47.238;9.006;2024-03-25T04:03:16;5.70;;;2.50;;
83121;SDS011;73002;47.238;9.006;2024-03-25T04:05:42;3.80;;;2.47;;
83121;SDS011;73002;47.238;9.006;2024-03-25T04:08:07;4.13;;;2.80;;
83121;SDS011;73002;47.238;9.006;2024-03-25T04:10:36;3.97;;;2.65;;
83121;SDS011;73002;47.238;9.006;2024-03-25T04:13:06;3.10;;;2.72;;
83121;SDS011;73002;47.238;9.006;2024-03-25T04:15:35;5.60;;;2.88;;
83121;SDS011;73002;47.238;9.006;2024-03-25T04:18:01;4.63;;;2.90;;
83121;SDS011;73002;47.238;9.006;2024-03-25T04:20:27;4.10;;;2.72;;
83121;SDS011;73002;47.238;9.006;2024-03-25T04:22:56;4.10;;;2.70;;
83121;SDS011;73002;47.238;9.006;2024-03-25T04:25:21;3.85;;;2.90;;
83121;SDS011;73002;47.238;9.006;2024-03-25T04:27:47;3.92;;;2.45;;
83121;SDS011;73002;47.238;9.006;2024-03-25T04:30:13;4.00;;;2.65;;
83121;SDS011;73002;47.238;9.006;2024-03-25T04:32:42;5.10;;;2.53;;
83121;SDS011;73002;47.238;9.006;2024-03-25T04:35:10;3.50;;;2.50;;
83121;SDS011;73002;47.238;9.006;2024-03-25T04:37:35;4.90;;;2.40;;
83121;SDS011;73002;47.238;9.006;2024-03-25T04:40:01;5.95;;;3.03;;
83121;SDS011;73002;47.238;9.006;2024-03-25T04:42:29;4.82;;;2.50;;
83121;SDS011;73002;47.238;9.006;2024-03-25T04:44:54;5.57;;;2.60;;
83121;SDS011;73002;47.238;9.006;2024-03-25T04:47:20;5.80;;;2.80;;
83121;SDS011;73002;47.238;9.006;2024-03-25T04:49:46;4.75;;;2.42;;
83121;SDS011;73002;47.238;9.006;2024-03-25T04:52:11;3.05;;;2.30;;
83121;SDS011;73002;47.238;9.006;2024-03-25T04:54:44;4.00;;;2.33;;
83121;SDS011;73002;47.238;9.006;2024-03-25T04:57:09;5.45;;;2.40;;
83121;SDS011;73002;47.238;9.006;2024-03-25T04:59:35;3.47;;;2.50;;
83121;SDS011;73002;47.238;9.006;2024-03-25T05:02:02;6.40;;;2.60;;
83121;SDS011;73002;47.238;9.006;2024-03-25T05:04:30;3.10;;;2.38;;
83121;SDS011;73002;47.238;9.006;2024-03-25T05:06:56;4.85;;;2.58;;
83121;SDS011;73002;47.238;9.006;2024-03-25T05:09:21;5.10;;;2.67;;
83121;SDS011;73002;47.238;9.006;2024-03-25T05:11:46;3.65;;;2.65;;
83121;SDS011;73002;47.238;9.006;2024-03-25T05:14:12;3.70;;;2.45;;
83121;SDS011;73002;47.238;9.006;2024-03-25T05:16:37;3.90;;;2.30;;
83121;SDS011;73002;47.238;9.006;2024-03-25T05:19:03;5.03;;;2.78;;
83121;SDS011;73002;47.238;9.006;2024-03-25T05:21:29;5.93;;;2.70;;
83121;SDS011;73002;47.238;9.006;2024-03-25T05:23:55;4.15;;;2.47;;
83121;SDS011;73002;47.238;9.006;2024-03-25T05:26:21;4.28;;;2.63;;
83121;SDS011;73002;47.238;9.006;2024-03-25T05:28:46;3.88;;;2.60;;
83121;SDS011;73002;47.238;9.006;2024-03-25T05:31:17;3.47;;;2.40;;
83121;SDS011;73002;47.238;9.006;2024-03-25T05:33:43;4.60;;;2.42;;
83121;SDS011;73002;47.238;9.006;2024-03-25T05:36:08;5.07;;;2.75;;
83121;SDS011;73002;47.238;9.006;2024-03-25T05:38:34;3.38;;;2.30;;
83121;SDS011;73002;47.238;9.006;2024-03-25T05:41:00;5.10;;;2.60;;
83121;SDS011;73002;47.238;9.006;2024-03-25T05:43:25;2.67;;;2.03;;
83121;SDS011;73002;47.238;9.006;2024-03-25T05:45:53;4.28;;;2.65;;
83121;SDS011;73002;47.238;9.006;2024-03-25T05:48:19;7.60;;;2.63;;
83121;SDS011;73002;47.238;9.006;2024-03-25T05:51:00;4.13;;;2.50;;
83121;SDS011;73002;47.238;9.006;2024-03-25T05:53:27;5.13;;;2.40;;
83121;SDS011;73002;47.238;9.006;2024-03-25T05:55:53;4.93;;;2.90;;
83121;SDS011;73002;47.238;9.006;2024-03-25T05:58:19;4.38;;;2.00;;
83121;SDS011;73002;47.238;9.006;2024-03-25T06:00:48;3.22;;;1.98;;
83121;SDS011;73002;47.238;9.006;2024-03-25T06:03:14;3.60;;;2.03;;
83121;SDS011;73002;47.238;9.006;2024-03-25T06:05:40;2.38;;;1.60;;
83121;SDS011;73002;47.238;9.006;2024-03-25T06:08:06;3.33;;;1.75;;
83121;SDS011;73002;47.238;9.006;2024-03-25T06:10:36;2.42;;;1.30;;
83121;SDS011;73002;47.238;9.006;2024-03-25T06:13:05;2.92;;;1.30;;
83121;SDS011;73002;47.238;9.006;2024-03-25T06:15:31;2.55;;;1.20;;
83121;SDS011;73002;47.238;9.006;2024-03-25T06:18:00;1.58;;;1.20;;
83121;SDS011;73002;47.238;9.006;2024-03-25T06:20:25;2.08;;;1.02;;
83121;SDS011;73002;47.238;9.006;2024-03-25T06:22:51;2.55;;;1.30;;
83121;SDS011;73002;47.238;9.006;2024-03-25T06:25:16;2.75;;;1.15;;
83121;SDS011;73002;47.238;9.006;2024-03-25T06:27:42;2.10;;;1.30;;
83121;SDS011;73002;47.238;9.006;2024-03-25T06:30:09;2.17;;;1.48;;
83121;SDS011;73002;47.238;9.006;2024-03-25T06:32:54;3.20;;;1.60;;
83121;SDS011;73002;47.238;9.006;2024-03-25T06:35:38;2.95;;;1.35;;
83121;SDS011;73002;47.238;9.006;2024-03-25T06:38:03;3.35;;;1.42;;
83121;SDS011;73002;47.238;9.006;2024-03-25T06:40:28;3.22;;;1.50;;
83121;SDS011;73002;47.238;9.006;2024-03-25T06:42:58;3.10;;;1.40;;
83121;SDS011;73002;47.238;9.006;2024-03-25T06:45:23;2.55;;;1.40;;
83121;SDS011;73002;47.238;9.006;2024-03-25T06:47:49;2.42;;;1.40;;
83121;SDS011;73002;47.238;9.006;2024-03-25T06:58:00;2.53;;;1.40;;
83121;SDS011;73002;47.238;9.006;2024-03-25T07:00:28;1.83;;;1.13;;
83121;SDS011;73002;47.238;9.006;2024-03-25T07:02:55;1.63;;;1.10;;
83121;SDS011;73002;47.238;9.006;2024-03-25T07:05:21;6.70;;;1.20;;
83121;SDS011;73002;47.238;9.006;2024-03-25T07:07:46;2.33;;;1.30;;
83121;SDS011;73002;47.238;9.006;2024-03-25T07:10:11;1.85;;;1.30;;
83121;SDS011;73002;47.238;9.006;2024-03-25T07:12:37;2.83;;;1.52;;
83121;SDS011;73002;47.238;9.006;2024-03-25T07:15:02;3.17;;;1.70;;
83121;SDS011;73002;47.238;9.006;2024-03-25T07:17:28;2.92;;;1.90;;
83121;SDS011;73002;47.238;9.006;2024-03-25T07:19:53;2.35;;;1.70;;
83121;SDS011;73002;47.238;9.006;2024-03-25T07:22:19;2.42;;;1.50;;
83121;SDS011;73002;47.238;9.006;2024-03-25T07:24:44;2.20;;;1.60;;
83121;SDS011;73002;47.238;9.006;2024-03-25T07:27:10;3.80;;;1.55;;
83121;SDS011;73002;47.238;9.006;2024-03-25T07:29:36;3.78;;;1.40;;
83121;SDS011;73002;47.238;9.006;2024-03-25T07:32:02;3.67;;;1.40;;
83121;SDS011;73002;47.238;9.006;2024-03-25T07:34:29;1.70;;;1.20;;
83121;SDS011;73002;47.238;9.006;2024-03-25T07:36:54;1.95;;;1.25;;
83121;SDS011;73002;47.238;9.006;2024-03-25T07:39:22;2.78;;;1.40;;
83121;SDS011;73002;47.238;9.006;2024-03-25T07:41:49;3.00;;;1.30;;
83121;SDS011;73002;47.238;9.006;2024-03-25T07:44:14;2.72;;;1.45;;
83121;SDS011;73002;47.238;9.006;2024-03-25T07:46:40;1.70;;;1.30;;
83121;SDS011;73002;47.238;9.006;2024-03-25T07:49:05;1.92;;;1.10;;
83121;SDS011;73002;47.238;9.006;2024-03-25T07:51:33;2.15;;;1.23;;
83121;SDS011;73002;47.238;9.006;2024-03-25T07:54:00;1.35;;;1.10;;
83121;SDS011;73002;47.238;9.006;2024-03-25T07:56:25;1.73;;;1.10;;
83121;SDS011;73002;47.238;9.006;2024-03-25T07:58:51;1.67;;;1.20;;
83121;SDS011;73002;47.238;9.006;2024-03-25T08:01:16;2.53;;;1.20;;
83121;SDS011;73002;47.238;9.006;2024-03-25T08:03:45;2.75;;;1.25;;
83121;SDS011;73002;47.238;9.006;2024-03-25T08:06:10;1.80;;;1.30;;
83121;SDS011;73002;47.238;9.006;2024-03-25T08:08:35;1.80;;;1.30;;
83121;SDS011;73002;47.238;9.006;2024-03-25T08:11:01;2.83;;;1.10;;
83121;SDS011;73002;47.238;9.006;2024-03-25T08:13:26;1.98;;;1.10;;
83121;SDS011;73002;47.238;9.006;2024-03-25T08:15:52;2.78;;;1.05;;
83121;SDS011;73002;47.238;9.006;2024-03-25T08:18:17;2.47;;;1.20;;
83121;SDS011;73002;47.238;9.006;2024-03-25T08:20:42;4.28;;;1.30;;
83121;SDS011;73002;47.238;9.006;2024-03-25T08:23:08;2.20;;;1.38;;
83121;SDS011;73002;47.238;9.006;2024-03-25T08:25:33;2.65;;;1.25;;
83121;SDS011;73002;47.238;9.006;2024-03-25T08:27:59;3.33;;;1.40;;
83121;SDS011;73002;47.238;9.006;2024-03-25T08:30:24;2.10;;;1.50;;
83121;SDS011;73002;47.238;9.006;2024-03-25T08:32:53;3.15;;;1.45;;
83121;SDS011;73002;47.238;9.006;2024-03-25T08:35:18;2.80;;;1.30;;
83121;SDS011;73002;47.238;9.006;2024-03-25T08:37:43;2.17;;;1.50;;
83121;SDS011;73002;47.238;9.006;2024-03-25T08:40:09;2.58;;;1.27;;
83121;SDS011;73002;47.238;9.006;2024-03-25T08:42:35;2.50;;;1.20;;
83121;SDS011;73002;47.238;9.006;2024-03-25T08:45:00;2.70;;;1.20;;
83121;SDS011;73002;47.238;9.006;2024-03-25T08:55:14;3.45;;;1.40;;
83121;SDS011;73002;47.238;9.006;2024-03-25T08:57:40;3.38;;;1.20;;
83121;SDS011;73002;47.238;9.006;2024-03-25T09:00:06;1.80;;;1.10;;
83121;SDS011;73002;47.238;9.006;2024-03-25T09:02:35;3.05;;;1.02;;
83121;SDS011;73002;47.238;9.006;2024-03-25T09:05:04;2.15;;;1.13;;
83121;SDS011;73002;47.238;9.006;2024-03-25T09:07:30;2.55;;;1.45;;
83121;SDS011;73002;47.238;9.006;2024-03-25T09:09:56;2.75;;;1.55;;
83121;SDS011;73002;47.238;9.006;2024-03-25T09:12:43;3.15;;;1.20;;
83121;SDS011;73002;47.238;9.006;2024-03-25T09:15:09;2.50;;;1.20;;
83121;SDS011;73002;47.238;9.006;2024-03-25T09:17:37;2.72;;;1.00;;
83121;SDS011;73002;47.238;9.006;2024-03-25T09:28:24;2.28;;;1.40;;
83121;SDS011;73002;47.238;9.006;2024-03-25T09:30:50;4.07;;;1.50;;
83121;SDS011;73002;47.238;9.006;2024-03-25T09:33:16;2.90;;;1.60;;
83121;SDS011;73002;47.238;9.006;2024-03-25T09:35:41;3.90;;;1.58;;
83121;SDS011;73002;47.238;9.006;2024-03-25T09:43:21;2.95;;;1.42;;
83121;SDS011;73002;47.238;9.006;2024-03-25T09:45:50;3.30;;;1.73;;
83121;SDS011;73002;47.238;9.006;2024-03-25T09:48:19;2.97;;;1.25;;
83121;SDS011;73002;47.238;9.006;2024-03-25T09:50:46;2.80;;;1.63;;
83121;SDS011;73002;47.238;9.006;2024-03-25T09:53:11;3.40;;;1.40;;
83121;SDS011;73002;47.238;9.006;2024-03-25T09:55:40;3.92;;;1.40;;
83121;SDS011;73002;47.238;9.006;2024-03-25T09:58:05;3.42;;;1.50;;
83121;SDS011;73002;47.238;9.006;2024-03-25T10:00:31;2.35;;;1.23;;
83121;SDS011;73002;47.238;9.006;2024-03-25T10:02:57;2.30;;;1.25;;
83121;SDS011;73002;47.238;9.006;2024-03-25T10:05:22;4.05;;;1.23;;
83121;SDS011;73002;47.238;9.006;2024-03-25T10:07:51;1.65;;;1.00;;
83121;SDS011;73002;47.238;9.006;2024-03-25T10:10:19;3.63;;;1.10;;
83121;SDS011;73002;47.238;9.006;2024-03-25T10:12:49;2.65;;;1.13;;
83121;SDS011;73002;47.238;9.006;2024-03-25T10:15:17;2.80;;;1.17;;
83121;SDS011;73002;47.238;9.006;2024-03-25T10:17:43;2.25;;;0.95;;
83121;SDS011;73002;47.238;9.006;2024-03-25T10:30:32;4.05;;;1.10;;
83121;SDS011;73002;47.238;9.006;2024-03-25T10:33:02;2.22;;;1.10;;
83121;SDS011;73002;47.238;9.006;2024-03-25T10:38:46;2.40;;;1.00;;
83121;SDS011;73002;47.238;9.006;2024-03-25T10:41:16;4.13;;;1.05;;
83121;SDS011;73002;47.238;9.006;2024-03-25T10:43:46;2.67;;;0.90;;
83121;SDS011;73002;47.238;9.006;2024-03-25T10:46:19;1.40;;;0.93;;
83121;SDS011;73002;47.238;9.006;2024-03-25T10:49:02;3.30;;;0.80;;
83121;SDS011;73002;47.238;9.006;2024-03-25T10:51:39;1.67;;;1.13;;
83121;SDS011;73002;47.238;9.006;2024-03-25T10:54:09;2.33;;;0.90;;
83121;SDS011;73002;47.238;9.006;2024-03-25T10:56:36;3.15;;;0.90;;
83121;SDS011;73002;47.238;9.006;2024-03-25T10:59:02;2.47;;;0.90;;
83121;SDS011;73002;47.238;9.006;2024-03-25T11:01:29;1.20;;;0.80;;
83121;SDS011;73002;47.238;9.006;2024-03-25T11:03:55;1.10;;;0.70;;
83121;SDS011;73002;47.238;9.006;2024-03-25T11:06:22;3.17;;;0.95;;
83121;SDS011;73002;47.238;9.006;2024-03-25T12:27:46;1.30;;;1.20;;
83121;SDS011;73002;47.238;9.006;2024-03-25T12:30:13;2.08;;;1.20;;
83121;SDS011;73002;47.238;9.006;2024-03-25T12:32:44;2.33;;;1.10;;
83121;SDS011;73002;47.238;9.006;2024-03-25T12:35:11;1.85;;;1.10;;
83121;SDS011;73002;47.238;9.006;2024-03-25T12:37:42;1.25;;;1.15;;
83121;SDS011;73002;47.238;9.006;2024-03-25T12:40:09;2.03;;;1.00;;
83121;SDS011;73002;47.238;9.006;2024-03-25T12:42:36;1.50;;;1.10;;
83121;SDS011;73002;47.238;9.006;2024-03-25T12:45:02;2.60;;;1.20;;
83121;SDS011;73002;47.238;9.006;2024-03-25T12:47:28;2.53;;;1.10;;
83121;SDS011;73002;47.238;9.006;2024-03-25T12:49:55;2.13;;;1.10;;
83121;SDS011;73002;47.238;9.006;2024-03-25T12:52:23;1.45;;;1.00;;
83121;SDS011;73002;47.238;9.006;2024-03-25T12:54:48;1.85;;;1.30;;
83121;SDS011;73002;47.238;9.006;2024-03-25T12:57:14;2.08;;;1.17;;
83121;SDS011;73002;47.238;9.006;2024-03-25T13:02:05;1.60;;;1.23;;
83121;SDS011;73002;47.238;9.006;2024-03-25T13:04:34;1.50;;;1.30;;
83121;SDS011;73002;47.238;9.006;2024-03-25T13:07:05;1.30;;;1.10;;
83121;SDS011;73002;47.238;9.006;2024-03-25T13:09:33;2.42;;;1.10;;
83121;SDS011;73002;47.238;9.006;2024-03-25T13:11:59;1.83;;;1.27;;
83121;SDS011;73002;47.238;9.006;2024-03-25T13:14:25;3.15;;;1.45;;
83121;SDS011;73002;47.238;9.006;2024-03-25T13:16:54;1.63;;;1.23;;
83121;SDS011;73002;47.238;9.006;2024-03-25T13:19:22;1.40;;;1.30;;
83121;SDS011;73002;47.238;9.006;2024-03-25T13:21:47;1.85;;;1.20;;
83121;SDS011;73002;47.238;9.006;2024-03-25T13:29:23;1.73;;;1.27;;
83121;SDS011;73002;47.238;9.006;2024-03-25T13:31:48;3.08;;;1.10;;
83121;SDS011;73002;47.238;9.006;2024-03-25T13:34:14;1.80;;;0.93;;
83121;SDS011;73002;47.238;9.006;2024-03-25T13:36:39;1.77;;;1.00;;
83121;SDS011;73002;47.238;9.006;2024-03-25T13:39:05;1.45;;;0.90;;
83121;SDS011;73002;47.238;9.006;2024-03-25T13:41:32;2.80;;;0.90;;
83121;SDS011;73002;47.238;9.006;2024-03-25T13:43:58;1.30;;;1.00;;
83121;SDS011;73002;47.238;9.006;2024-03-25T13:46:25;1.75;;;1.00;;
83121;SDS011;73002;47.238;9.006;2024-03-25T13:48:50;1.10;;;1.00;;
83121;SDS011;73002;47.238;9.006;2024-03-25T13:51:17;2.20;;;0.95;;
83121;SDS011;73002;47.238;9.006;2024-03-25T13:53:42;1.80;;;1.05;;
83121;SDS011;73002;47.238;9.006;2024-03-25T13:56:08;2.50;;;1.00;;
83121;SDS011;73002;47.238;9.006;2024-03-25T13:58:36;0.95;;;0.90;;
83121;SDS011;73002;47.238;9.006;2024-03-25T15:22:39;0.80;;;0.60;;
83121;SDS011;73002;47.238;9.006;2024-03-25T15:25:09;1.25;;;0.45;;
83121;SDS011;73002;47.238;9.006;2024-03-25T15:27:35;0.60;;;0.60;;
83121;SDS011;73002;47.238;9.006;2024-03-25T15:30:02;1.10;;;0.73;;
